createdAt,value
2018-05-03T00:00:18.828Z,19.4
2018-05-03T00:01:08.612Z,19.4
2018-05-03T00:01:58.964Z,19.4
2018-05-03T00:02:48.751Z,19.4
2018-05-03T00:03:39.077Z,19.3
2018-05-03T00:04:29.161Z,19.3
2018-05-03T00:05:19.228Z,19.3
2018-05-03T00:06:08.996Z,19.3
2018-05-03T00:06:58.887Z,19.3
2018-05-03T00:07:48.921Z,19.3
2018-05-03T00:08:39.052Z,19.3
2018-05-03T00:09:29.266Z,19.3
2018-05-03T00:10:19.140Z,19.3
2018-05-03T00:11:09.220Z,19.3
2018-05-03T00:11:59.481Z,19.3
2018-05-03T00:12:49.257Z,19.2
2018-05-03T00:13:39.871Z,19.2
2018-05-03T00:14:29.946Z,19.1
2018-05-03T00:15:19.974Z,19.1
2018-05-03T00:16:10.044Z,19.1
2018-05-03T00:17:00.117Z,19
2018-05-03T00:17:50.171Z,19
2018-05-03T00:18:40.233Z,19
2018-05-03T00:19:30.326Z,19
2018-05-03T00:20:20.375Z,18.9
2018-05-03T00:21:10.426Z,18.9
2018-05-03T00:22:00.577Z,18.9
2018-05-03T00:22:50.562Z,18.9
2018-05-03T00:23:40.619Z,18.9
2018-05-03T00:24:30.708Z,18.9
2018-05-03T00:25:20.483Z,18.9
2018-05-03T00:26:10.532Z,18.8
2018-05-03T00:27:00.601Z,18.9
2018-05-03T00:27:50.400Z,18.8
2018-05-03T00:28:41.002Z,18.8
2018-05-03T00:29:31.097Z,18.8
2018-05-03T00:30:20.581Z,18.8
2018-05-03T00:31:10.662Z,18.8
2018-05-03T00:32:00.713Z,18.8
2018-05-03T00:32:51.370Z,18.8
2018-05-03T00:33:41.144Z,18.8
2018-05-03T00:34:31.212Z,18.8
2018-05-03T00:35:21.565Z,18.8
2018-05-03T00:36:11.666Z,18.8
2018-05-03T00:37:01.395Z,18.8
2018-05-03T00:45:22.034Z,18.6
2018-05-03T00:46:12.098Z,18.6
2018-05-03T00:47:02.429Z,18.6
2018-05-03T00:47:52.493Z,18.6
2018-05-03T00:48:42.551Z,18.6
2018-05-03T00:49:32.363Z,18.6
2018-05-03T00:50:22.406Z,18.6
2018-05-03T00:51:12.483Z,18.6
2018-05-03T00:52:02.859Z,18.6
2018-05-03T00:52:52.900Z,18.6
2018-05-03T00:53:42.945Z,18.6
2018-05-03T00:54:33.015Z,18.6
2018-05-03T00:55:23.107Z,18.6
2018-05-03T00:56:13.221Z,18.6
2018-05-03T00:57:03.244Z,18.6
2018-05-03T00:57:52.983Z,18.6
2018-05-03T00:58:43.350Z,18.6
2018-05-03T00:59:33.399Z,18.5
2018-05-03T01:00:23.481Z,18.5
2018-05-03T01:01:13.565Z,18.5
2018-05-03T01:02:03.623Z,18.5
2018-05-03T01:02:53.130Z,18.5
2018-05-03T01:03:43.462Z,18.4
2018-05-03T01:04:33.801Z,18.4
2018-05-03T01:05:23.644Z,18.4
2018-05-03T01:06:13.381Z,18.4
2018-05-03T01:07:03.709Z,18.4
2018-05-03T01:07:53.500Z,18.4
2018-05-03T01:08:44.105Z,18.3
2018-05-03T01:09:34.173Z,18.3
2018-05-03T01:10:24.263Z,18.3
2018-05-03T01:11:14.047Z,18.3
2018-05-03T01:12:04.386Z,18.3
2018-05-03T01:12:54.467Z,18.3
2018-05-03T01:13:44.505Z,18.3
2018-05-03T01:14:34.297Z,18.3
2018-05-03T01:15:24.621Z,18.3
2018-05-03T01:16:14.152Z,18.2
2018-05-03T01:17:04.764Z,18.3
2018-05-03T01:17:54.264Z,18.3
2018-05-03T01:18:44.874Z,18.3
2018-05-03T01:19:34.681Z,18.3
2018-05-03T01:20:24.750Z,18.3
2018-05-03T01:21:15.080Z,18.2
2018-05-03T01:22:04.577Z,18.2
2018-05-03T01:22:55.217Z,18.2
2018-05-03T01:23:45.029Z,18.2
2018-05-03T01:24:35.074Z,18.1
2018-05-03T01:25:25.132Z,18.1
2018-05-03T01:26:15.499Z,18.1
2018-05-03T01:27:05.516Z,18.1
2018-05-03T01:27:55.610Z,18.1
2018-05-03T01:28:45.687Z,18
2018-05-03T01:29:35.712Z,18.1
2018-05-03T01:30:25.783Z,18
2018-05-03T01:31:15.864Z,18
2018-05-03T01:32:05.643Z,18
2018-05-03T01:32:56.080Z,17.9
2018-05-03T01:33:45.773Z,17.9
2018-05-03T01:34:36.106Z,17.9
2018-05-03T01:35:26.161Z,17.9
2018-05-03T01:36:16.258Z,17.9
2018-05-03T01:37:06.012Z,17.8
2018-05-03T01:37:56.105Z,17.8
2018-05-03T01:38:45.863Z,17.8
2018-05-03T01:39:36.510Z,17.8
2018-05-03T01:40:26.573Z,17.7
2018-05-03T01:41:15.763Z,17.7
2018-05-03T01:42:06.698Z,17.6
2018-05-03T01:42:56.198Z,17.7
2018-05-03T01:43:46.832Z,17.6
2018-05-03T01:44:36.595Z,17.6
2018-05-03T01:45:26.966Z,17.6
2018-05-03T01:46:17.015Z,17.6
2018-05-03T01:47:06.235Z,17.6
2018-05-03T01:47:57.154Z,17.6
2018-05-03T01:48:46.159Z,17.6
2018-05-03T01:49:36.786Z,17.5
2018-05-03T01:50:26.852Z,17.5
2018-05-03T01:51:16.651Z,17.5
2018-05-03T01:52:07.480Z,17.5
2018-05-03T01:52:57.252Z,17.5
2018-05-03T01:53:47.600Z,17.5
2018-05-03T01:54:37.669Z,17.5
2018-05-03T01:55:27.750Z,17.5
2018-05-03T01:56:17.811Z,17.4
2018-05-03T01:57:07.658Z,17.4
2018-05-03T01:57:57.930Z,17.4
2018-05-03T01:58:47.997Z,17.4
2018-05-03T01:59:37.577Z,17.4
2018-05-03T02:00:27.840Z,17.4
2018-05-03T02:01:17.672Z,17.4
2018-05-03T02:02:07.969Z,17.3
2018-05-03T02:02:58.317Z,17.3
2018-05-03T02:03:48.395Z,17.3
2018-05-03T02:04:38.447Z,17.3
2018-05-03T02:05:27.642Z,17.3
2018-05-03T02:06:18.565Z,17.3
2018-05-03T02:07:08.619Z,17.3
2018-05-03T02:07:58.412Z,17.3
2018-05-03T02:08:48.776Z,17.3
2018-05-03T02:09:38.531Z,17.3
2018-05-03T02:10:28.894Z,17.3
2018-05-03T02:11:18.732Z,17.3
2018-05-03T02:12:09.029Z,17.3
2018-05-03T02:12:59.075Z,17.3
2018-05-03T02:13:49.170Z,17.3
2018-05-03T02:14:39.216Z,17.3
2018-05-03T02:15:28.988Z,17.3
2018-05-03T02:16:19.346Z,17.3
2018-05-03T02:17:09.138Z,17.3
2018-05-03T02:17:59.260Z,17.3
2018-05-03T02:18:49.253Z,17.3
2018-05-03T02:19:39.616Z,17.3
2018-05-03T02:20:29.655Z,17.3
2018-05-03T02:21:19.721Z,17.3
2018-05-03T02:22:09.775Z,17.3
2018-05-03T02:22:59.856Z,17.3
2018-05-03T02:23:49.904Z,17.3
2018-05-03T02:24:39.978Z,17.3
2018-05-03T02:25:30.048Z,17.3
2018-05-03T02:26:20.103Z,17.3
2018-05-03T02:27:09.870Z,17.2
2018-05-03T02:27:59.980Z,17.2
2018-05-03T02:28:50.294Z,17.1
2018-05-03T02:29:40.370Z,17.1
2018-05-03T02:30:30.441Z,17.1
2018-05-03T02:31:20.512Z,17.1
2018-05-03T02:32:10.556Z,17.1
2018-05-03T02:33:00.063Z,17.1
2018-05-03T02:34:40.480Z,17.1
2018-05-03T02:38:51.125Z,16.9
2018-05-03T02:46:21.108Z,16.9
2018-05-03T02:47:11.734Z,16.9
2018-05-03T02:48:01.909Z,16.9
2018-05-03T02:48:51.830Z,16.9
2018-05-03T02:49:41.984Z,16.9
2018-05-03T02:50:31.987Z,16.9
2018-05-03T02:51:22.029Z,16.9
2018-05-03T02:52:11.530Z,16.9
2018-05-03T02:53:02.174Z,16.8
2018-05-03T02:53:52.229Z,16.8
2018-05-03T02:54:42.329Z,16.8
2018-05-03T02:55:32.097Z,16.8
2018-05-03T02:56:22.136Z,16.8
2018-05-03T02:57:11.661Z,16.8
2018-05-03T02:58:01.975Z,16.8
2018-05-03T02:58:52.354Z,16.8
2018-05-03T02:59:42.428Z,16.8
2018-05-03T03:00:32.742Z,16.8
2018-05-03T03:01:22.823Z,16.8
2018-05-03T03:02:12.723Z,16.8
2018-05-03T03:03:02.942Z,16.8
2018-05-03T03:03:53.041Z,16.7
2018-05-03T03:04:42.776Z,16.7
2018-05-03T03:05:32.863Z,16.7
2018-05-03T03:06:23.212Z,16.7
2018-05-03T03:07:12.987Z,16.7
2018-05-03T03:08:03.320Z,16.7
2018-05-03T03:08:53.142Z,16.7
2018-05-03T03:09:43.922Z,16.7
2018-05-03T03:10:32.961Z,16.7
2018-05-03T03:11:23.602Z,16.7
2018-05-03T03:12:13.083Z,16.7
2018-05-03T03:13:03.704Z,16.7
2018-05-03T03:13:53.765Z,16.8
2018-05-03T03:14:43.835Z,16.8
2018-05-03T03:15:33.921Z,16.7
2018-05-03T03:16:23.952Z,16.7
2018-05-03T03:17:14.015Z,16.7
2018-05-03T03:18:03.815Z,16.7
2018-05-03T03:18:53.881Z,16.6
2018-05-03T03:19:43.944Z,16.6
2018-05-03T03:20:33.450Z,16.6
2018-05-03T03:21:24.142Z,16.6
2018-05-03T03:22:13.883Z,16.6
2018-05-03T03:23:03.926Z,16.6
2018-05-03T03:23:54.545Z,16.6
2018-05-03T03:24:44.601Z,16.6
2018-05-03T03:25:34.481Z,16.6
2018-05-03T03:26:24.468Z,16.6
2018-05-03T03:27:14.337Z,16.6
2018-05-03T03:28:04.600Z,16.6
2018-05-03T03:28:54.661Z,16.6
2018-05-03T03:29:45.002Z,16.6
2018-05-03T03:30:34.788Z,16.5
2018-05-03T03:31:24.664Z,16.5
2018-05-03T03:32:14.618Z,16.5
2018-05-03T03:33:05.243Z,16.5
2018-05-03T03:33:55.311Z,16.5
2018-05-03T03:34:45.381Z,16.5
2018-05-03T03:35:35.446Z,16.5
2018-05-03T03:36:24.938Z,16.5
2018-05-03T03:37:15.574Z,16.5
2018-05-03T03:38:05.326Z,16.5
2018-05-03T03:38:55.141Z,16.5
2018-05-03T03:39:45.479Z,16.5
2018-05-03T03:40:35.836Z,16.6
2018-05-03T03:41:25.888Z,16.6
2018-05-03T03:42:15.694Z,16.6
2018-05-03T03:43:06.093Z,16.6
2018-05-03T03:43:55.878Z,16.6
2018-05-03T03:44:46.130Z,16.6
2018-05-03T03:45:36.218Z,16.6
2018-05-03T03:46:26.268Z,16.7
2018-05-03T03:47:16.338Z,16.8
2018-05-03T03:48:06.138Z,16.8
2018-05-03T03:48:56.452Z,16.8
2018-05-03T03:49:46.526Z,16.8
2018-05-03T03:50:36.312Z,16.8
2018-05-03T03:51:26.652Z,16.8
2018-05-03T03:52:16.155Z,16.8
2018-05-03T03:53:06.294Z,16.8
2018-05-03T03:53:56.565Z,16.9
2018-05-03T03:54:46.925Z,16.9
2018-05-03T03:56:26.498Z,17.1
2018-05-03T03:57:17.091Z,17.1
2018-05-03T03:58:07.169Z,17.2
2018-05-03T03:58:57.238Z,17.2
2018-05-03T03:59:47.038Z,17.3
2018-05-03T04:00:37.367Z,17.3
2018-05-03T04:01:27.440Z,17.3
2018-05-03T04:02:17.616Z,17.4
2018-05-03T04:03:07.300Z,17.4
2018-05-03T04:03:57.345Z,17.4
2018-05-03T04:04:47.428Z,17.5
2018-05-03T04:05:37.477Z,17.5
2018-05-03T04:06:27.795Z,17.6
2018-05-03T04:07:17.326Z,17.6
2018-05-03T04:08:07.179Z,17.6
2018-05-03T04:08:58.019Z,17.6
2018-05-03T04:09:47.791Z,17.6
2018-05-03T04:10:37.577Z,17.8
2018-05-03T04:11:28.237Z,17.8
2018-05-03T04:12:18.268Z,17.8
2018-05-03T04:13:08.333Z,17.9
2018-05-03T04:13:58.414Z,17.9
2018-05-03T04:14:48.450Z,17.9
2018-05-03T04:15:38.542Z,18
2018-05-03T04:16:28.593Z,18
2018-05-03T04:17:18.350Z,18.1
2018-05-03T04:18:08.716Z,18.1
2018-05-03T04:18:58.769Z,18.2
2018-05-03T04:19:48.282Z,18.3
2018-05-03T04:20:38.887Z,18.3
2018-05-03T04:21:29.024Z,18.4
2018-05-03T04:22:19.847Z,18.4
2018-05-03T04:23:08.807Z,18.4
2018-05-03T04:23:58.880Z,18.6
2018-05-03T04:24:49.204Z,18.6
2018-05-03T04:26:29.351Z,18.8
2018-05-03T04:27:18.841Z,18.8
2018-05-03T04:28:09.480Z,18.9
2018-05-03T04:28:59.562Z,19
2018-05-03T04:29:49.351Z,19.1
2018-05-03T04:30:39.407Z,19.1
2018-05-03T04:31:29.755Z,19.3
2018-05-03T04:32:19.816Z,19.3
2018-05-03T04:33:09.850Z,19.3
2018-05-03T04:33:59.938Z,19.4
2018-05-03T04:34:49.723Z,19.4
2018-05-03T04:35:39.570Z,19.6
2018-05-03T04:36:30.135Z,19.6
2018-05-03T04:37:20.180Z,19.7
2018-05-03T04:38:10.022Z,19.8
2018-05-03T04:39:00.329Z,19.8
2018-05-03T04:39:50.383Z,19.8
2018-05-03T04:40:40.153Z,19.9
2018-05-03T04:41:30.500Z,19.9
2018-05-03T04:42:20.299Z,20.1
2018-05-03T04:43:10.629Z,20.1
2018-05-03T04:44:00.678Z,20.1
2018-05-03T04:44:50.481Z,20.3
2018-05-03T04:45:40.836Z,20.3
2018-05-03T04:46:30.905Z,20.3
2018-05-03T04:47:20.947Z,20.4
2018-05-03T04:48:10.736Z,20.4
2018-05-03T04:49:00.513Z,20.5
2018-05-03T04:49:50.864Z,20.6
2018-05-03T04:50:41.209Z,20.8
2018-05-03T04:51:31.265Z,20.9
2018-05-03T04:52:20.778Z,21.2
2018-05-03T04:53:11.141Z,21.4
2018-05-03T04:54:01.471Z,21.6
2018-05-03T04:54:51.543Z,21.7
2018-05-03T04:55:41.321Z,21.9
2018-05-03T04:56:31.363Z,22
2018-05-03T04:57:21.837Z,22.2
2018-05-03T04:58:11.779Z,22.3
2018-05-03T04:59:01.840Z,22.4
2018-05-03T04:59:51.640Z,22.6
2018-05-03T05:00:41.984Z,22.7
2018-05-03T05:01:32.045Z,22.9
2018-05-03T05:02:22.180Z,23
2018-05-03T05:03:12.159Z,23.2
2018-05-03T05:04:02.222Z,23.4
2018-05-03T05:04:52.305Z,23.6
2018-05-03T05:05:42.362Z,23.8
2018-05-03T05:06:32.154Z,23.9
2018-05-03T05:07:22.224Z,24.1
2018-05-03T05:08:12.262Z,24.3
2018-05-03T05:09:02.405Z,24.4
2018-05-03T05:09:52.705Z,24.6
2018-05-03T05:10:42.761Z,24.8
2018-05-03T05:11:32.817Z,24.9
2018-05-03T05:12:22.623Z,25.1
2018-05-03T05:13:12.663Z,25.2
2018-05-03T05:14:02.462Z,25.4
2018-05-03T05:14:52.781Z,25.6
2018-05-03T05:15:42.901Z,25.7
2018-05-03T05:16:33.199Z,25.8
2018-05-03T05:17:23.252Z,26
2018-05-03T05:18:13.038Z,26.3
2018-05-03T05:19:03.408Z,26.4
2018-05-03T05:19:53.178Z,26.6
2018-05-03T05:20:43.506Z,26.8
2018-05-03T05:21:33.594Z,27
2018-05-03T05:22:23.634Z,27.1
2018-05-03T05:23:13.726Z,27.3
2018-05-03T05:24:03.493Z,27.5
2018-05-03T05:24:53.891Z,27.7
2018-05-03T05:26:33.416Z,28
2018-05-03T05:27:24.064Z,28.2
2018-05-03T05:28:14.295Z,28.3
2018-05-03T05:29:03.742Z,28.5
2018-05-03T05:29:54.219Z,28.6
2018-05-03T05:30:44.589Z,28.9
2018-05-03T05:31:34.359Z,29.1
2018-05-03T05:32:24.421Z,29.3
2018-05-03T05:33:14.497Z,29.5
2018-05-03T05:34:04.270Z,29.6
2018-05-03T05:34:54.623Z,29.8
2018-05-03T05:35:44.693Z,30
2018-05-03T05:36:34.458Z,30.3
2018-05-03T05:37:24.811Z,30.4
2018-05-03T05:38:14.873Z,30.7
2018-05-03T05:39:05.556Z,30.9
2018-05-03T05:39:55.025Z,31.1
2018-05-03T05:40:44.245Z,31.3
2018-05-03T05:41:35.141Z,31.4
2018-05-03T05:42:24.915Z,31.7
2018-05-03T05:43:15.258Z,31.9
2018-05-03T05:44:05.321Z,32.1
2018-05-03T05:44:55.114Z,32.4
2018-05-03T05:45:45.460Z,32.6
2018-05-03T05:46:35.531Z,32.8
2018-05-03T05:47:25.580Z,33
2018-05-03T05:48:15.416Z,33.2
2018-05-03T05:49:05.432Z,33.3
2018-05-03T05:49:55.797Z,33.6
2018-05-03T05:50:45.275Z,33.8
2018-05-03T05:51:35.643Z,33.9
2018-05-03T05:52:25.428Z,34.1
2018-05-03T05:53:15.866Z,34.3
2018-05-03T05:54:06.148Z,34.6
2018-05-03T05:54:56.173Z,34.8
2018-05-03T05:55:46.234Z,35.1
2018-05-03T05:56:36.173Z,35.3
2018-05-03T05:57:26.367Z,35.5
2018-05-03T05:58:16.441Z,35.8
2018-05-03T05:59:06.510Z,35.9
2018-05-03T05:59:56.308Z,36.1
2018-05-03T06:00:46.356Z,36.4
2018-05-03T06:01:36.720Z,36.6
2018-05-03T06:02:26.772Z,36.8
2018-05-03T06:03:16.850Z,36.9
2018-05-03T06:04:06.974Z,37
2018-05-03T06:04:56.689Z,37.2
2018-05-03T06:05:46.751Z,37.4
2018-05-03T06:06:37.117Z,37.7
2018-05-03T06:07:27.147Z,37.9
2018-05-03T06:08:17.219Z,38.2
2018-05-03T06:09:07.288Z,38.4
2018-05-03T06:09:57.444Z,38.6
2018-05-03T06:10:47.122Z,38.8
2018-05-03T06:11:36.928Z,39
2018-05-03T06:12:27.338Z,39.3
2018-05-03T06:13:17.359Z,39.5
2018-05-03T06:14:07.674Z,39.8
2018-05-03T06:14:57.195Z,40
2018-05-03T06:15:47.808Z,40.2
2018-05-03T06:16:37.876Z,40.4
2018-05-03T06:17:27.935Z,40.6
2018-05-03T06:18:17.722Z,40.8
2018-05-03T06:19:08.070Z,41.1
2018-05-03T06:19:57.858Z,41.3
2018-05-03T06:20:47.946Z,41.4
2018-05-03T06:21:38.290Z,41.7
2018-05-03T06:22:28.048Z,41.8
2018-05-03T06:23:17.924Z,41.9
2018-05-03T06:24:08.179Z,42.1
2018-05-03T06:24:58.535Z,42.3
2018-05-03T06:25:48.602Z,42.6
2018-05-03T06:26:38.438Z,42.7
2018-05-03T06:27:28.733Z,42.8
2018-05-03T06:28:18.820Z,43.1
2018-05-03T06:29:08.859Z,43.3
2018-05-03T06:29:58.664Z,43.5
2018-05-03T06:30:48.999Z,43.7
2018-05-03T06:31:39.061Z,43.9
2018-05-03T06:32:28.829Z,44.2
2018-05-03T06:33:18.899Z,44.5
2018-05-03T06:34:09.251Z,44.8
2018-05-03T06:34:58.763Z,45
2018-05-03T06:35:48.834Z,45.3
2018-05-03T06:36:39.429Z,45.4
2018-05-03T06:37:29.511Z,45.6
2018-05-03T06:38:19.583Z,45.3
2018-05-03T06:39:09.632Z,44.8
2018-05-03T06:39:59.425Z,44.3
2018-05-03T06:40:49.793Z,43.8
2018-05-03T06:41:39.831Z,43.6
2018-05-03T06:42:29.900Z,43.6
2018-05-03T06:43:20.003Z,43.9
2018-05-03T06:44:10.035Z,44.2
2018-05-03T06:45:00.088Z,44.6
2018-05-03T06:45:50.160Z,45.1
2018-05-03T06:46:39.461Z,45.6
2018-05-03T06:47:29.997Z,46
2018-05-03T06:48:20.383Z,46.4
2018-05-03T06:49:10.171Z,46.6
2018-05-03T06:50:00.207Z,46.4
2018-05-03T06:50:50.265Z,46
2018-05-03T06:51:40.274Z,45.6
2018-05-03T06:52:29.663Z,45.1
2018-05-03T06:53:20.490Z,44.6
2018-05-03T06:54:10.818Z,44.1
2018-05-03T06:55:00.641Z,43.8
2018-05-03T06:55:50.954Z,43.5
2018-05-03T06:56:40.469Z,43.4
2018-05-03T06:57:31.087Z,43.4
2018-05-03T06:58:20.865Z,43.3
2018-05-03T06:59:11.215Z,43.4
2018-05-03T07:00:01.017Z,43.7
2018-05-03T07:00:51.069Z,44
2018-05-03T07:01:41.429Z,44.4
2018-05-03T07:02:31.192Z,44.8
2018-05-03T07:03:21.532Z,45.2
2018-05-03T07:04:12.089Z,45.4
2018-05-03T07:05:01.391Z,45.6
2018-05-03T07:05:51.734Z,45.8
2018-05-03T07:06:41.536Z,45.9
2018-05-03T07:07:31.595Z,46.2
2018-05-03T07:08:21.661Z,46.5
2018-05-03T07:09:12.005Z,46.7
2018-05-03T07:10:02.104Z,46.6
2018-05-03T07:10:52.128Z,46.4
2018-05-03T07:11:42.196Z,46.1
2018-05-03T07:12:31.971Z,45.9
2018-05-03T07:13:22.333Z,45.7
2018-05-03T07:14:12.111Z,45.6
2018-05-03T07:15:02.477Z,45.6
2018-05-03T07:15:52.520Z,45.7
2018-05-03T07:16:42.674Z,45.9
2018-05-03T07:17:32.378Z,46.1
2018-05-03T07:18:22.757Z,46.3
2018-05-03T07:19:12.494Z,46.7
2018-05-03T07:20:02.322Z,47.1
2018-05-03T07:20:52.369Z,47.4
2018-05-03T07:21:42.694Z,47.8
2018-05-03T07:22:33.062Z,47.9
2018-05-03T07:23:23.119Z,48.1
2018-05-03T07:24:13.184Z,48.1
2018-05-03T07:25:03.040Z,48.1
2018-05-03T07:25:53.363Z,48.2
2018-05-03T07:26:43.479Z,48.3
2018-05-03T07:27:33.477Z,48.4
2018-05-03T07:28:23.354Z,48.6
2018-05-03T07:29:13.334Z,48.8
2018-05-03T07:30:03.664Z,48.9
2018-05-03T07:30:53.844Z,48.8
2018-05-03T07:31:43.764Z,48.8
2018-05-03T07:32:33.832Z,48.7
2018-05-03T07:33:23.996Z,48.5
2018-05-03T07:34:13.965Z,48.3
2018-05-03T07:35:03.779Z,48.1
2018-05-03T07:35:54.170Z,48.1
2018-05-03T07:36:43.877Z,48.1
2018-05-03T07:37:34.231Z,48.2
2018-05-03T07:38:24.282Z,48.2
2018-05-03T07:39:14.126Z,48.3
2018-05-03T07:40:04.668Z,48.3
2018-05-03T07:40:54.903Z,48.4
2018-05-03T07:41:44.649Z,48.6
2018-05-03T07:42:34.374Z,48.8
2018-05-03T07:43:24.700Z,48.8
2018-05-03T07:44:14.237Z,48.8
2018-05-03T07:45:04.823Z,48.8
2018-05-03T07:45:54.953Z,48.9
2018-05-03T07:46:44.704Z,48.9
2018-05-03T07:47:34.766Z,48.9
2018-05-03T07:48:24.340Z,48.9
2018-05-03T07:49:14.897Z,49.1
2018-05-03T07:50:05.370Z,49.2
2018-05-03T07:50:54.526Z,49.3
2018-05-03T07:51:44.893Z,49.3
2018-05-03T07:52:35.415Z,49.4
2018-05-03T07:53:24.640Z,49.8
2018-05-03T07:54:14.970Z,50.4
2018-05-03T07:55:05.629Z,50.9
2018-05-03T07:55:55.400Z,51.4
2018-05-03T07:57:35.852Z,52.3
2018-05-03T07:58:25.327Z,52.8
2018-05-03T07:59:15.649Z,53.3
2018-05-03T08:00:05.834Z,53.9
2018-05-03T08:00:55.817Z,54.5
2018-05-03T08:01:45.662Z,55.1
2018-05-03T08:02:35.725Z,55.7
2018-05-03T08:03:25.784Z,56.2
2018-05-03T08:04:15.864Z,56.6
2018-05-03T08:05:05.838Z,57.2
2018-05-03T08:05:55.709Z,57.8
2018-05-03T08:06:46.527Z,58.3
2018-05-03T08:07:36.587Z,58.7
2018-05-03T08:08:26.668Z,59
2018-05-03T08:09:16.459Z,59.3
2018-05-03T08:10:06.788Z,59.6
2018-05-03T08:10:57.168Z,60
2018-05-03T08:11:46.068Z,60.5
2018-05-03T08:12:37.005Z,60.9
2018-05-03T08:13:26.795Z,61.3
2018-05-03T08:14:16.884Z,61.6
2018-05-03T08:15:07.176Z,61.8
2018-05-03T08:15:57.273Z,61.9
2018-05-03T08:16:47.315Z,62.1
2018-05-03T08:17:37.381Z,62.3
2018-05-03T08:18:27.510Z,62.6
2018-05-03T08:19:17.534Z,62.8
2018-05-03T08:20:07.588Z,63.1
2018-05-03T08:20:57.365Z,63.2
2018-05-03T08:21:47.708Z,63.4
2018-05-03T08:22:36.922Z,63.5
2018-05-03T08:23:27.570Z,63.6
2018-05-03T08:24:17.909Z,63.6
2018-05-03T08:25:07.714Z,63.5
2018-05-03T08:25:57.761Z,63.6
2018-05-03T08:26:47.860Z,63.5
2018-05-03T08:27:38.193Z,63.3
2018-05-03T08:28:28.401Z,63
2018-05-03T08:29:18.326Z,63.2
2018-05-03T08:30:08.372Z,63.4
2018-05-03T08:30:58.441Z,63.6
2018-05-03T08:31:48.689Z,63.9
2018-05-03T08:32:38.585Z,64.3
2018-05-03T08:33:28.629Z,64.5
2018-05-03T08:34:18.698Z,64.6
2018-05-03T08:35:08.192Z,64.6
2018-05-03T08:35:58.842Z,64.7
2018-05-03T08:36:48.900Z,64.9
2018-05-03T08:37:38.409Z,64.8
2018-05-03T08:38:29.042Z,64.9
2018-05-03T08:39:19.192Z,65.1
2018-05-03T08:40:09.203Z,65.3
2018-05-03T08:40:58.961Z,65.3
2018-05-03T08:41:49.303Z,65.4
2018-05-03T08:42:39.370Z,65.6
2018-05-03T08:43:29.431Z,65.8
2018-05-03T08:44:19.520Z,65.8
2018-05-03T08:45:09.551Z,66
2018-05-03T08:45:59.692Z,66.2
2018-05-03T08:46:49.690Z,66.4
2018-05-03T08:47:39.773Z,66.4
2018-05-03T08:48:29.841Z,66.6
2018-05-03T08:49:19.914Z,66.6
2018-05-03T08:50:09.689Z,66.6
2018-05-03T08:50:59.452Z,66.8
2018-05-03T08:51:49.538Z,66.9
2018-05-03T08:52:40.269Z,67.1
2018-05-03T08:53:29.983Z,67.1
2018-05-03T08:54:20.292Z,67.1
2018-05-03T08:55:10.343Z,67
2018-05-03T08:55:59.862Z,66.9
2018-05-03T08:56:50.490Z,66.8
2018-05-03T08:57:40.636Z,66.9
2018-05-03T08:58:30.637Z,66.8
2018-05-03T08:59:20.693Z,66.7
2018-05-03T09:00:10.760Z,66.4
2018-05-03T09:01:00.539Z,66.2
2018-05-03T09:01:51.232Z,65.8
2018-05-03T09:02:40.976Z,65.4
2018-05-03T09:03:31.053Z,65.3
2018-05-03T09:04:21.088Z,65.3
2018-05-03T09:05:11.141Z,65.5
2018-05-03T09:06:01.221Z,65.8
2018-05-03T09:06:51.285Z,66.1
2018-05-03T09:07:41.365Z,66.5
2018-05-03T09:08:31.423Z,67
2018-05-03T09:09:21.486Z,67.3
2018-05-03T09:10:11.273Z,67.4
2018-05-03T09:11:01.609Z,67.5
2018-05-03T09:11:51.712Z,67.6
2018-05-03T09:12:41.758Z,67.6
2018-05-03T09:13:31.832Z,67.8
2018-05-03T09:14:21.624Z,67.9
2018-05-03T09:15:11.686Z,68
2018-05-03T09:16:02.027Z,68.2
2018-05-03T09:16:51.824Z,68.4
2018-05-03T09:17:42.155Z,68.5
2018-05-03T09:18:32.215Z,68.6
2018-05-03T09:19:22.013Z,68.8
2018-05-03T09:20:12.352Z,68.9
2018-05-03T09:21:02.143Z,68.9
2018-05-03T09:21:51.933Z,69.1
2018-05-03T09:22:42.272Z,69.1
2018-05-03T09:23:32.637Z,69.1
2018-05-03T09:24:22.687Z,69.2
2018-05-03T09:25:12.762Z,69.3
2018-05-03T09:26:02.824Z,69.3
2018-05-03T09:26:52.719Z,69.3
2018-05-03T09:27:42.934Z,69.3
2018-05-03T09:28:33.025Z,69.4
2018-05-03T09:29:22.806Z,69.6
2018-05-03T09:30:12.884Z,69.8
2018-05-03T09:31:03.228Z,70
2018-05-03T09:31:53.334Z,70.2
2018-05-03T09:32:42.789Z,70.3
2018-05-03T09:33:33.148Z,70.1
2018-05-03T09:34:23.506Z,70.3
2018-05-03T09:35:12.989Z,70.3
2018-05-03T09:36:03.638Z,70.1
2018-05-03T09:36:53.420Z,70.1
2018-05-03T09:37:43.479Z,70.1
2018-05-03T09:38:33.523Z,70.1
2018-05-03T09:39:23.885Z,70.2
2018-05-03T09:40:14.004Z,70.3
2018-05-03T09:41:04.016Z,70.5
2018-05-03T09:41:54.067Z,70.8
2018-05-03T09:42:43.849Z,71
2018-05-03T09:43:34.216Z,71.1
2018-05-03T09:44:23.816Z,71.3
2018-05-03T09:45:14.064Z,71.4
2018-05-03T09:46:04.127Z,71.6
2018-05-03T09:46:54.498Z,71.6
2018-05-03T09:47:44.248Z,71.5
2018-05-03T09:48:34.609Z,71.4
2018-05-03T09:49:24.670Z,71.3
2018-05-03T09:50:14.450Z,71.2
2018-05-03T09:51:04.526Z,71
2018-05-03T09:51:54.621Z,70.9
2018-05-03T09:52:44.933Z,70.6
2018-05-03T09:53:34.734Z,70.2
2018-05-03T09:54:25.063Z,69.9
2018-05-03T09:55:14.287Z,69.9
2018-05-03T09:56:05.200Z,70.1
2018-05-03T09:56:54.705Z,70.4
2018-05-03T09:57:45.331Z,70.8
2018-05-03T09:58:35.440Z,71.1
2018-05-03T09:59:25.783Z,71.3
2018-05-03T10:00:15.662Z,71.5
2018-05-03T10:01:05.336Z,71.7
2018-05-03T10:01:54.816Z,71.9
2018-05-03T10:02:45.755Z,72
2018-05-03T10:03:35.529Z,71.9
2018-05-03T10:04:25.619Z,72
2018-05-03T10:05:15.944Z,72.1
2018-05-03T10:06:06.073Z,72.2
2018-05-03T10:06:56.066Z,72.3
2018-05-03T10:07:46.131Z,72.4
2018-05-03T10:08:35.639Z,72.5
2018-05-03T10:09:26.260Z,72.6
2018-05-03T10:10:16.334Z,72.1
2018-05-03T10:11:06.396Z,70.8
2018-05-03T10:11:56.194Z,69
2018-05-03T10:12:46.536Z,67.3
2018-05-03T10:13:36.609Z,66
2018-05-03T10:14:26.718Z,64.9
2018-05-03T10:15:16.439Z,64.4
2018-05-03T10:16:06.528Z,64.6
2018-05-03T10:16:56.300Z,65.3
2018-05-03T10:17:46.941Z,66
2018-05-03T10:18:37.018Z,66.6
2018-05-03T10:19:26.523Z,66.6
2018-05-03T10:20:16.846Z,65.8
2018-05-03T10:21:06.621Z,64.5
2018-05-03T10:21:57.256Z,63.3
2018-05-03T10:22:46.868Z,62.3
2018-05-03T10:23:36.825Z,61.4
2018-05-03T10:24:26.621Z,60.9
2018-05-03T10:25:17.229Z,60.6
2018-05-03T10:26:07.040Z,60.4
2018-05-03T10:26:57.373Z,60.6
2018-05-03T10:27:47.716Z,61
2018-05-03T10:28:37.776Z,61.4
2018-05-03T10:29:27.923Z,61.5
2018-05-03T10:30:18.525Z,61.2
2018-05-03T10:31:07.969Z,60.8
2018-05-03T10:31:58.040Z,60.7
2018-05-03T10:32:48.133Z,60.8
2018-05-03T10:33:38.179Z,61.2
2018-05-03T10:34:28.254Z,61.6
2018-05-03T10:35:18.059Z,61.8
2018-05-03T10:36:08.687Z,62.1
2018-05-03T10:36:58.456Z,62.4
2018-05-03T10:37:48.537Z,62.6
2018-05-03T10:38:38.566Z,62.9
2018-05-03T10:39:28.377Z,62.9
2018-05-03T10:40:18.440Z,63.1
2018-05-03T10:41:08.207Z,63.3
2018-05-03T10:41:59.238Z,63.4
2018-05-03T10:42:48.909Z,63.3
2018-05-03T10:43:38.412Z,63.3
2018-05-03T10:44:28.490Z,63.1
2018-05-03T10:45:18.622Z,62.6
2018-05-03T10:46:09.183Z,62.3
2018-05-03T10:46:58.982Z,62.3
2018-05-03T10:47:49.301Z,62.5
2018-05-03T10:48:39.714Z,63
2018-05-03T10:49:29.431Z,63.4
2018-05-03T10:50:18.936Z,63.9
2018-05-03T10:51:09.035Z,64.3
2018-05-03T10:51:59.632Z,64.6
2018-05-03T10:52:49.691Z,64.2
2018-05-03T10:53:39.756Z,63.7
2018-05-03T10:54:29.830Z,63.1
2018-05-03T10:55:19.913Z,62.1
2018-05-03T10:56:09.962Z,61.1
2018-05-03T10:57:00.107Z,60.3
2018-05-03T10:57:50.083Z,59.4
2018-05-03T10:58:40.181Z,58.9
2018-05-03T10:59:30.286Z,58.9
2018-05-03T11:00:20.300Z,59.1
2018-05-03T11:01:10.186Z,59.2
2018-05-03T11:02:00.416Z,58.9
2018-05-03T11:02:50.487Z,58.4
2018-05-03T11:04:30.609Z,56.9
2018-05-03T11:05:21.160Z,56.3
2018-05-03T11:06:10.248Z,55.6
2018-05-03T11:07:00.537Z,55
2018-05-03T11:07:50.337Z,54.6
2018-05-03T11:08:40.399Z,54.4
2018-05-03T11:09:30.175Z,54.3
2018-05-03T11:10:20.800Z,54.3
2018-05-03T11:11:11.532Z,54.3
2018-05-03T11:12:01.245Z,54.3
2018-05-03T11:12:51.318Z,54.2
2018-05-03T11:13:41.415Z,54.1
2018-05-03T11:14:31.410Z,53.9
2018-05-03T11:15:21.480Z,53.6
2018-05-03T11:16:11.528Z,53.3
2018-05-03T11:17:01.612Z,52.8
2018-05-03T11:17:51.406Z,52.3
2018-05-03T11:18:41.739Z,51.8
2018-05-03T11:19:31.522Z,51.3
2018-05-03T11:20:21.600Z,51
2018-05-03T11:21:11.951Z,50.8
2018-05-03T11:22:01.742Z,50.5
2018-05-03T11:22:52.083Z,50.3
2018-05-03T11:23:42.143Z,49.9
2018-05-03T11:24:32.218Z,49.8
2018-05-03T11:25:22.261Z,49.6
2018-05-03T11:26:12.045Z,49.4
2018-05-03T11:27:02.419Z,49.3
2018-05-03T11:27:52.464Z,49.2
2018-05-03T11:28:42.274Z,49.1
2018-05-03T11:29:32.608Z,49
2018-05-03T11:30:22.657Z,48.9
2018-05-03T11:31:12.735Z,48.8